Granite Falls, Minnesota
Current Conditions -  °F | °C
As of 8:13 AM on Monday 24 Nov 2014 (Local Time) from KGDB Reporting Station
Overcast Overcast  
Wind Chill: -5°   Ceiling: 2800
Heat Index: 15°   Visibility: 10mi
Dew Point: 10°   Wind: 29mph
Humidity: 79%   Direction: 300°WNW
Pressure: 29.59"   Gusts: 36mph
Location:  44.81°N, 95.55°W
Report Text: KGDB 241413Z AUTO 30025G31KT 10SM SCT020 BKN028 OVC042 M09/M12 A2959 RMK AO2 T10941125
Loading
Personal Weather Stations






























Interactive Weather Map New forecast layout! Learn more

10-Day Weather Forecast

Advertisements
Track Severe Weather on mobile